sensor_id;sensor_type;location;lat;lon;timestamp;P1;durP1;ratioP1;P2;durP2;ratioP2
12587;SDS011;6359;51.450;7.346;2023-06-05T00:01:55;7.07;;;2.50;;
12587;SDS011;6359;51.450;7.346;2023-06-05T00:04:22;4.32;;;2.35;;
12587;SDS011;6359;51.450;7.346;2023-06-05T00:06:49;4.03;;;2.50;;
12587;SDS011;6359;51.450;7.346;2023-06-05T00:09:16;3.60;;;2.40;;
12587;SDS011;6359;51.450;7.346;2023-06-05T00:11:43;7.05;;;2.15;;
12587;SDS011;6359;51.450;7.346;2023-06-05T00:14:10;6.53;;;2.35;;
12587;SDS011;6359;51.450;7.346;2023-06-05T00:16:37;8.23;;;2.63;;
12587;SDS011;6359;51.450;7.346;2023-06-05T00:19:06;4.82;;;2.35;;
12587;SDS011;6359;51.450;7.346;2023-06-05T00:21:33;8.93;;;2.80;;
12587;SDS011;6359;51.450;7.346;2023-06-05T00:24:00;8.48;;;2.63;;
12587;SDS011;6359;51.450;7.346;2023-06-05T00:26:27;5.53;;;2.65;;
12587;SDS011;6359;51.450;7.346;2023-06-05T00:28:53;7.53;;;2.60;;
12587;SDS011;6359;51.450;7.346;2023-06-05T00:31:20;5.25;;;2.92;;
12587;SDS011;6359;51.450;7.346;2023-06-05T00:33:48;4.25;;;2.40;;
12587;SDS011;6359;51.450;7.346;2023-06-05T00:36:18;7.25;;;2.45;;
12587;SDS011;6359;51.450;7.346;2023-06-05T00:38:47;5.32;;;2.47;;
12587;SDS011;6359;51.450;7.346;2023-06-05T00:41:15;5.13;;;3.28;;
12587;SDS011;6359;51.450;7.346;2023-06-05T00:43:42;8.15;;;3.17;;
12587;SDS011;6359;51.450;7.346;2023-06-05T00:46:08;7.32;;;3.03;;
12587;SDS011;6359;51.450;7.346;2023-06-05T00:48:36;7.65;;;2.65;;
12587;SDS011;6359;51.450;7.346;2023-06-05T00:51:03;5.32;;;2.55;;
12587;SDS011;6359;51.450;7.346;2023-06-05T00:53:36;10.90;;;3.25;;
12587;SDS011;6359;51.450;7.346;2023-06-05T00:56:05;7.50;;;2.75;;
12587;SDS011;6359;51.450;7.346;2023-06-05T00:58:32;8.40;;;2.90;;
12587;SDS011;6359;51.450;7.346;2023-06-05T01:00:59;6.95;;;2.92;;
12587;SDS011;6359;51.450;7.346;2023-06-05T01:03:29;4.75;;;2.60;;
12587;SDS011;6359;51.450;7.346;2023-06-05T01:05:58;7.45;;;3.00;;
12587;SDS011;6359;51.450;7.346;2023-06-05T01:08:28;4.55;;;2.67;;
12587;SDS011;6359;51.450;7.346;2023-06-05T01:11:05;6.75;;;2.70;;
12587;SDS011;6359;51.450;7.346;2023-06-05T01:13:36;7.60;;;3.10;;
12587;SDS011;6359;51.450;7.346;2023-06-05T01:16:09;4.93;;;2.92;;
12587;SDS011;6359;51.450;7.346;2023-06-05T01:18:36;7.72;;;2.75;;
12587;SDS011;6359;51.450;7.346;2023-06-05T01:21:09;5.65;;;3.05;;
12587;SDS011;6359;51.450;7.346;2023-06-05T01:23:39;7.72;;;3.22;;
12587;SDS011;6359;51.450;7.346;2023-06-05T01:26:09;9.82;;;2.70;;
12587;SDS011;6359;51.450;7.346;2023-06-05T01:28:38;5.22;;;3.00;;
12587;SDS011;6359;51.450;7.346;2023-06-05T01:31:08;5.57;;;2.97;;
12587;SDS011;6359;51.450;7.346;2023-06-05T01:33:40;4.45;;;2.65;;
12587;SDS011;6359;51.450;7.346;2023-06-05T01:36:14;6.22;;;3.10;;
12587;SDS011;6359;51.450;7.346;2023-06-05T01:38:43;6.75;;;3.00;;
12587;SDS011;6359;51.450;7.346;2023-06-05T01:41:11;4.82;;;2.75;;
12587;SDS011;6359;51.450;7.346;2023-06-05T01:43:39;4.85;;;3.03;;
12587;SDS011;6359;51.450;7.346;2023-06-05T01:46:07;11.00;;;3.35;;
12587;SDS011;6359;51.450;7.346;2023-06-05T01:48:35;7.93;;;2.53;;
12587;SDS011;6359;51.450;7.346;2023-06-05T01:51:03;8.27;;;3.45;;
12587;SDS011;6359;51.450;7.346;2023-06-05T01:53:31;3.40;;;3.08;;
12587;SDS011;6359;51.450;7.346;2023-06-05T01:55:59;5.55;;;3.15;;
12587;SDS011;6359;51.450;7.346;2023-06-05T01:58:28;6.38;;;3.65;;
12587;SDS011;6359;51.450;7.346;2023-06-05T02:00:55;4.03;;;2.80;;
12587;SDS011;6359;51.450;7.346;2023-06-05T02:03:23;7.03;;;3.13;;
12587;SDS011;6359;51.450;7.346;2023-06-05T02:05:50;3.75;;;3.13;;
12587;SDS011;6359;51.450;7.346;2023-06-05T02:08:18;8.18;;;3.25;;
12587;SDS011;6359;51.450;7.346;2023-06-05T02:10:47;7.32;;;4.03;;
12587;SDS011;6359;51.450;7.346;2023-06-05T02:13:15;5.70;;;3.00;;
12587;SDS011;6359;51.450;7.346;2023-06-05T02:15:47;7.57;;;3.38;;
12587;SDS011;6359;51.450;7.346;2023-06-05T02:18:21;6.53;;;3.45;;
12587;SDS011;6359;51.450;7.346;2023-06-05T02:20:52;5.88;;;3.38;;
12587;SDS011;6359;51.450;7.346;2023-06-05T02:23:20;7.72;;;3.90;;
12587;SDS011;6359;51.450;7.346;2023-06-05T02:25:48;6.20;;;3.22;;
12587;SDS011;6359;51.450;7.346;2023-06-05T02:28:19;7.88;;;3.90;;
12587;SDS011;6359;51.450;7.346;2023-06-05T02:30:47;13.75;;;3.90;;
12587;SDS011;6359;51.450;7.346;2023-06-05T02:33:13;6.15;;;3.60;;
12587;SDS011;6359;51.450;7.346;2023-06-05T02:35:40;7.10;;;3.55;;
12587;SDS011;6359;51.450;7.346;2023-06-05T02:38:07;7.47;;;3.65;;
12587;SDS011;6359;51.450;7.346;2023-06-05T02:40:35;5.50;;;4.53;;
12587;SDS011;6359;51.450;7.346;2023-06-05T02:43:02;8.73;;;4.45;;
12587;SDS011;6359;51.450;7.346;2023-06-05T02:45:32;8.98;;;4.10;;
12587;SDS011;6359;51.450;7.346;2023-06-05T02:48:00;11.75;;;5.28;;
12587;SDS011;6359;51.450;7.346;2023-06-05T02:50:26;6.65;;;4.38;;
12587;SDS011;6359;51.450;7.346;2023-06-05T02:52:53;7.50;;;4.30;;
12587;SDS011;6359;51.450;7.346;2023-06-05T02:55:20;5.35;;;3.60;;
12587;SDS011;6359;51.450;7.346;2023-06-05T02:57:47;7.40;;;4.00;;
12587;SDS011;6359;51.450;7.346;2023-06-05T03:00:14;6.78;;;4.43;;
12587;SDS011;6359;51.450;7.346;2023-06-05T03:02:43;8.05;;;4.40;;
12587;SDS011;6359;51.450;7.346;2023-06-05T03:05:13;8.52;;;3.90;;
12587;SDS011;6359;51.450;7.346;2023-06-05T03:07:40;6.68;;;4.13;;
12587;SDS011;6359;51.450;7.346;2023-06-05T03:10:08;10.23;;;4.55;;
12587;SDS011;6359;51.450;7.346;2023-06-05T03:12:35;6.47;;;4.68;;
12587;SDS011;6359;51.450;7.346;2023-06-05T03:15:02;10.95;;;4.95;;
12587;SDS011;6359;51.450;7.346;2023-06-05T03:17:29;10.00;;;4.82;;
12587;SDS011;6359;51.450;7.346;2023-06-05T03:19:58;6.25;;;4.50;;
12587;SDS011;6359;51.450;7.346;2023-06-05T03:22:25;6.75;;;4.28;;
12587;SDS011;6359;51.450;7.346;2023-06-05T03:24:51;9.70;;;5.00;;
12587;SDS011;6359;51.450;7.346;2023-06-05T03:27:19;7.18;;;4.40;;
12587;SDS011;6359;51.450;7.346;2023-06-05T03:29:45;7.30;;;4.18;;
12587;SDS011;6359;51.450;7.346;2023-06-05T03:32:13;11.35;;;4.90;;
12587;SDS011;6359;51.450;7.346;2023-06-05T03:34:39;6.13;;;3.80;;
12587;SDS011;6359;51.450;7.346;2023-06-05T03:37:09;12.27;;;4.63;;
12587;SDS011;6359;51.450;7.346;2023-06-05T03:39:36;7.35;;;5.30;;
12587;SDS011;6359;51.450;7.346;2023-06-05T03:42:03;6.50;;;4.93;;
12587;SDS011;6359;51.450;7.346;2023-06-05T03:44:32;9.57;;;6.13;;
12587;SDS011;6359;51.450;7.346;2023-06-05T03:46:58;6.95;;;4.05;;
12587;SDS011;6359;51.450;7.346;2023-06-05T03:49:26;9.65;;;5.00;;
12587;SDS011;6359;51.450;7.346;2023-06-05T03:51:53;8.23;;;4.78;;
12587;SDS011;6359;51.450;7.346;2023-06-05T03:54:27;9.63;;;4.53;;
12587;SDS011;6359;51.450;7.346;2023-06-05T03:56:57;5.88;;;4.47;;
12587;SDS011;6359;51.450;7.346;2023-06-05T03:59:25;9.45;;;4.93;;
12587;SDS011;6359;51.450;7.346;2023-06-05T04:01:53;11.88;;;4.68;;
12587;SDS011;6359;51.450;7.346;2023-06-05T04:04:20;7.70;;;4.28;;
12587;SDS011;6359;51.450;7.346;2023-06-05T04:06:47;7.53;;;4.88;;
12587;SDS011;6359;51.450;7.346;2023-06-05T04:09:15;6.63;;;4.50;;
12587;SDS011;6359;51.450;7.346;2023-06-05T04:11:44;7.85;;;4.60;;
12587;SDS011;6359;51.450;7.346;2023-06-05T04:14:12;9.75;;;5.30;;
12587;SDS011;6359;51.450;7.346;2023-06-05T04:16:39;7.95;;;4.13;;
12587;SDS011;6359;51.450;7.346;2023-06-05T04:19:08;10.05;;;4.65;;
12587;SDS011;6359;51.450;7.346;2023-06-05T04:21:36;8.38;;;4.32;;
12587;SDS011;6359;51.450;7.346;2023-06-05T04:24:04;6.68;;;4.28;;
12587;SDS011;6359;51.450;7.346;2023-06-05T04:26:33;11.70;;;5.20;;
12587;SDS011;6359;51.450;7.346;2023-06-05T04:29:01;12.35;;;4.90;;
12587;SDS011;6359;51.450;7.346;2023-06-05T04:31:29;10.27;;;4.88;;
12587;SDS011;6359;51.450;7.346;2023-06-05T04:33:57;11.55;;;5.18;;
12587;SDS011;6359;51.450;7.346;2023-06-05T04:36:27;8.50;;;5.05;;
12587;SDS011;6359;51.450;7.346;2023-06-05T04:38:54;5.95;;;4.40;;
12587;SDS011;6359;51.450;7.346;2023-06-05T04:41:21;7.25;;;4.55;;
12587;SDS011;6359;51.450;7.346;2023-06-05T04:43:48;6.45;;;4.50;;
12587;SDS011;6359;51.450;7.346;2023-06-05T04:46:17;7.85;;;4.80;;
12587;SDS011;6359;51.450;7.346;2023-06-05T04:48:44;8.90;;;5.20;;
12587;SDS011;6359;51.450;7.346;2023-06-05T04:51:11;10.10;;;6.43;;
12587;SDS011;6359;51.450;7.346;2023-06-05T04:53:38;7.50;;;5.40;;
12587;SDS011;6359;51.450;7.346;2023-06-05T04:56:06;9.73;;;5.97;;
12587;SDS011;6359;51.450;7.346;2023-06-05T04:58:34;9.38;;;5.78;;
12587;SDS011;6359;51.450;7.346;2023-06-05T05:01:01;9.32;;;5.25;;
12587;SDS011;6359;51.450;7.346;2023-06-05T05:03:32;8.77;;;5.55;;
12587;SDS011;6359;51.450;7.346;2023-06-05T05:06:00;7.38;;;5.50;;
12587;SDS011;6359;51.450;7.346;2023-06-05T05:08:27;9.13;;;5.25;;
12587;SDS011;6359;51.450;7.346;2023-06-05T05:10:56;6.93;;;4.90;;
12587;SDS011;6359;51.450;7.346;2023-06-05T05:13:23;10.77;;;4.70;;
12587;SDS011;6359;51.450;7.346;2023-06-05T05:15:50;7.05;;;4.65;;
12587;SDS011;6359;51.450;7.346;2023-06-05T05:18:18;9.10;;;4.28;;
12587;SDS011;6359;51.450;7.346;2023-06-05T05:20:46;9.68;;;4.15;;
12587;SDS011;6359;51.450;7.346;2023-06-05T05:23:13;6.20;;;3.33;;
12587;SDS011;6359;51.450;7.346;2023-06-05T05:25:40;5.30;;;3.47;;
12587;SDS011;6359;51.450;7.346;2023-06-05T05:28:07;3.45;;;3.00;;
12587;SDS011;6359;51.450;7.346;2023-06-05T05:30:35;7.20;;;3.22;;
12587;SDS011;6359;51.450;7.346;2023-06-05T05:33:02;5.45;;;2.88;;
12587;SDS011;6359;51.450;7.346;2023-06-05T05:35:29;4.47;;;3.50;;
12587;SDS011;6359;51.450;7.346;2023-06-05T05:37:57;5.68;;;2.95;;
12587;SDS011;6359;51.450;7.346;2023-06-05T05:40:24;5.50;;;2.85;;
12587;SDS011;6359;51.450;7.346;2023-06-05T05:42:51;6.28;;;2.90;;
12587;SDS011;6359;51.450;7.346;2023-06-05T05:45:18;3.88;;;2.78;;
12587;SDS011;6359;51.450;7.346;2023-06-05T05:47:45;5.22;;;3.13;;
12587;SDS011;6359;51.450;7.346;2023-06-05T05:50:12;6.05;;;3.50;;
12587;SDS011;6359;51.450;7.346;2023-06-05T05:52:39;6.60;;;3.10;;
12587;SDS011;6359;51.450;7.346;2023-06-05T05:55:09;9.98;;;3.13;;
12587;SDS011;6359;51.450;7.346;2023-06-05T05:57:36;5.93;;;3.05;;
12587;SDS011;6359;51.450;7.346;2023-06-05T06:00:03;6.65;;;3.75;;
12587;SDS011;6359;51.450;7.346;2023-06-05T06:02:34;5.00;;;3.50;;
12587;SDS011;6359;51.450;7.346;2023-06-05T06:05:01;10.35;;;3.63;;
12587;SDS011;6359;51.450;7.346;2023-06-05T06:07:30;5.70;;;3.25;;
12587;SDS011;6359;51.450;7.346;2023-06-05T06:09:57;8.63;;;3.47;;
12587;SDS011;6359;51.450;7.346;2023-06-05T06:12:25;6.95;;;3.30;;
12587;SDS011;6359;51.450;7.346;2023-06-05T06:14:53;5.47;;;3.17;;
12587;SDS011;6359;51.450;7.346;2023-06-05T06:17:20;5.75;;;2.90;;
12587;SDS011;6359;51.450;7.346;2023-06-05T06:19:46;4.95;;;2.80;;
12587;SDS011;6359;51.450;7.346;2023-06-05T06:22:14;4.47;;;3.15;;
12587;SDS011;6359;51.450;7.346;2023-06-05T06:24:41;3.90;;;3.00;;
12587;SDS011;6359;51.450;7.346;2023-06-05T06:27:08;6.63;;;3.50;;
12587;SDS011;6359;51.450;7.346;2023-06-05T06:29:36;4.45;;;3.15;;
12587;SDS011;6359;51.450;7.346;2023-06-05T06:32:12;7.05;;;3.42;;
12587;SDS011;6359;51.450;7.346;2023-06-05T06:34:39;9.20;;;3.72;;
12587;SDS011;6359;51.450;7.346;2023-06-05T06:37:07;5.85;;;3.90;;
12587;SDS011;6359;51.450;7.346;2023-06-05T06:39:34;6.65;;;2.95;;
12587;SDS011;6359;51.450;7.346;2023-06-05T06:42:01;7.30;;;5.40;;
12587;SDS011;6359;51.450;7.346;2023-06-05T06:44:28;7.32;;;4.82;;
12587;SDS011;6359;51.450;7.346;2023-06-05T06:46:56;5.80;;;3.20;;
12587;SDS011;6359;51.450;7.346;2023-06-05T06:49:23;6.07;;;3.20;;
12587;SDS011;6359;51.450;7.346;2023-06-05T06:51:50;7.82;;;3.40;;
12587;SDS011;6359;51.450;7.346;2023-06-05T06:54:17;6.80;;;3.33;;
12587;SDS011;6359;51.450;7.346;2023-06-05T06:56:44;10.05;;;3.42;;
12587;SDS011;6359;51.450;7.346;2023-06-05T06:59:11;5.97;;;3.22;;
12587;SDS011;6359;51.450;7.346;2023-06-05T07:01:41;8.40;;;3.20;;
12587;SDS011;6359;51.450;7.346;2023-06-05T07:04:12;5.28;;;2.90;;
12587;SDS011;6359;51.450;7.346;2023-06-05T07:06:41;7.07;;;3.42;;
12587;SDS011;6359;51.450;7.346;2023-06-05T07:09:09;4.72;;;3.33;;
12587;SDS011;6359;51.450;7.346;2023-06-05T07:11:36;4.95;;;3.42;;
12587;SDS011;6359;51.450;7.346;2023-06-05T07:14:02;6.38;;;3.53;;
12587;SDS011;6359;51.450;7.346;2023-06-05T07:16:29;7.47;;;3.10;;
12587;SDS011;6359;51.450;7.346;2023-06-05T07:18:57;4.25;;;2.95;;
12587;SDS011;6359;51.450;7.346;2023-06-05T07:21:25;7.10;;;3.10;;
12587;SDS011;6359;51.450;7.346;2023-06-05T07:23:52;4.40;;;3.20;;
12587;SDS011;6359;51.450;7.346;2023-06-05T07:26:19;9.68;;;3.38;;
12587;SDS011;6359;51.450;7.346;2023-06-05T07:28:46;4.32;;;2.97;;
12587;SDS011;6359;51.450;7.346;2023-06-05T07:31:14;7.10;;;3.45;;
12587;SDS011;6359;51.450;7.346;2023-06-05T07:33:42;4.30;;;3.35;;
12587;SDS011;6359;51.450;7.346;2023-06-05T07:36:09;11.95;;;4.03;;
12587;SDS011;6359;51.450;7.346;2023-06-05T07:38:38;7.80;;;3.33;;
12587;SDS011;6359;51.450;7.346;2023-06-05T07:41:05;5.13;;;3.20;;
12587;SDS011;6359;51.450;7.346;2023-06-05T07:43:32;6.45;;;2.78;;
12587;SDS011;6359;51.450;7.346;2023-06-05T07:45:59;8.93;;;3.00;;
12587;SDS011;6359;51.450;7.346;2023-06-05T07:48:26;4.63;;;2.72;;
12587;SDS011;6359;51.450;7.346;2023-06-05T07:50:53;5.75;;;3.10;;
12587;SDS011;6359;51.450;7.346;2023-06-05T07:53:20;4.25;;;2.97;;
12587;SDS011;6359;51.450;7.346;2023-06-05T07:55:48;5.93;;;3.03;;
12587;SDS011;6359;51.450;7.346;2023-06-05T07:58:17;5.15;;;3.22;;
12587;SDS011;6359;51.450;7.346;2023-06-05T08:00:44;4.93;;;2.90;;
12587;SDS011;6359;51.450;7.346;2023-06-05T08:03:13;6.45;;;3.05;;
12587;SDS011;6359;51.450;7.346;2023-06-05T08:05:45;6.90;;;3.38;;
12587;SDS011;6359;51.450;7.346;2023-06-05T08:08:12;6.57;;;3.33;;
12587;SDS011;6359;51.450;7.346;2023-06-05T08:10:39;4.75;;;3.10;;
12587;SDS011;6359;51.450;7.346;2023-06-05T08:13:08;6.13;;;2.80;;
12587;SDS011;6359;51.450;7.346;2023-06-05T08:15:35;7.55;;;3.38;;
12587;SDS011;6359;51.450;7.346;2023-06-05T08:18:02;5.53;;;3.88;;
12587;SDS011;6359;51.450;7.346;2023-06-05T08:20:29;9.25;;;4.25;;
12587;SDS011;6359;51.450;7.346;2023-06-05T08:22:56;6.90;;;3.42;;
12587;SDS011;6359;51.450;7.346;2023-06-05T08:25:23;5.40;;;2.95;;
12587;SDS011;6359;51.450;7.346;2023-06-05T08:27:50;7.75;;;3.60;;
12587;SDS011;6359;51.450;7.346;2023-06-05T08:30:19;12.77;;;4.35;;
12587;SDS011;6359;51.450;7.346;2023-06-05T08:32:46;6.85;;;3.05;;
12587;SDS011;6359;51.450;7.346;2023-06-05T08:35:13;6.65;;;3.30;;
12587;SDS011;6359;51.450;7.346;2023-06-05T08:37:40;9.82;;;3.53;;
12587;SDS011;6359;51.450;7.346;2023-06-05T08:40:07;10.02;;;3.00;;
12587;SDS011;6359;51.450;7.346;2023-06-05T08:42:35;5.75;;;3.22;;
12587;SDS011;6359;51.450;7.346;2023-06-05T08:45:04;6.60;;;2.85;;
12587;SDS011;6359;51.450;7.346;2023-06-05T08:47:35;6.03;;;3.05;;
12587;SDS011;6359;51.450;7.346;2023-06-05T08:50:04;10.75;;;3.28;;
12587;SDS011;6359;51.450;7.346;2023-06-05T08:52:33;4.00;;;2.70;;
12587;SDS011;6359;51.450;7.346;2023-06-05T08:55:03;4.00;;;2.65;;
12587;SDS011;6359;51.450;7.346;2023-06-05T08:57:31;5.88;;;3.00;;
12587;SDS011;6359;51.450;7.346;2023-06-05T08:59:59;6.93;;;2.85;;
12587;SDS011;6359;51.450;7.346;2023-06-05T09:02:33;11.27;;;3.00;;
12587;SDS011;6359;51.450;7.346;2023-06-05T09:05:02;5.32;;;2.53;;
12587;SDS011;6359;51.450;7.346;2023-06-05T09:07:30;9.80;;;3.42;;
12587;SDS011;6359;51.450;7.346;2023-06-05T09:09:57;6.35;;;2.92;;
12587;SDS011;6359;51.450;7.346;2023-06-05T09:12:24;17.98;;;6.38;;
12587;SDS011;6359;51.450;7.346;2023-06-05T09:14:51;4.60;;;3.10;;
12587;SDS011;6359;51.450;7.346;2023-06-05T09:17:18;4.85;;;2.97;;
12587;SDS011;6359;51.450;7.346;2023-06-05T09:19:49;6.80;;;3.28;;
12587;SDS011;6359;51.450;7.346;2023-06-05T09:22:16;10.90;;;3.20;;
12587;SDS011;6359;51.450;7.346;2023-06-05T09:24:58;7.20;;;2.97;;
12587;SDS011;6359;51.450;7.346;2023-06-05T09:27:26;10.25;;;4.68;;
12587;SDS011;6359;51.450;7.346;2023-06-05T09:30:01;7.40;;;3.03;;
12587;SDS011;6359;51.450;7.346;2023-06-05T09:32:29;8.75;;;3.50;;
12587;SDS011;6359;51.450;7.346;2023-06-05T09:34:58;6.95;;;3.42;;
12587;SDS011;6359;51.450;7.346;2023-06-05T09:37:32;7.45;;;3.40;;
12587;SDS011;6359;51.450;7.346;2023-06-05T09:40:00;8.55;;;3.67;;
12587;SDS011;6359;51.450;7.346;2023-06-05T09:42:33;4.55;;;3.35;;
12587;SDS011;6359;51.450;7.346;2023-06-05T09:45:01;4.90;;;3.47;;
12587;SDS011;6359;51.450;7.346;2023-06-05T09:47:29;9.65;;;3.58;;
12587;SDS011;6359;51.450;7.346;2023-06-05T09:49:57;8.40;;;3.05;;
12587;SDS011;6359;51.450;7.346;2023-06-05T09:52:25;8.65;;;3.03;;
12587;SDS011;6359;51.450;7.346;2023-06-05T09:54:51;6.35;;;3.30;;
12587;SDS011;6359;51.450;7.346;2023-06-05T09:57:22;6.70;;;3.30;;
12587;SDS011;6359;51.450;7.346;2023-06-05T09:59:52;9.68;;;3.30;;
12587;SDS011;6359;51.450;7.346;2023-06-05T10:02:20;5.13;;;3.55;;
12587;SDS011;6359;51.450;7.346;2023-06-05T10:04:51;5.40;;;3.35;;
12587;SDS011;6359;51.450;7.346;2023-06-05T10:07:24;7.20;;;3.65;;
12587;SDS011;6359;51.450;7.346;2023-06-05T10:09:51;4.95;;;3.70;;
12587;SDS011;6359;51.450;7.346;2023-06-05T10:12:20;9.38;;;3.58;;
12587;SDS011;6359;51.450;7.346;2023-06-05T10:14:49;5.57;;;3.53;;
12587;SDS011;6359;51.450;7.346;2023-06-05T10:17:19;10.77;;;3.38;;
12587;SDS011;6359;51.450;7.346;2023-06-05T10:19:48;3.90;;;2.47;;
12587;SDS011;6359;51.450;7.346;2023-06-05T10:22:16;7.75;;;3.55;;
12587;SDS011;6359;51.450;7.346;2023-06-05T10:24:46;6.28;;;3.30;;
12587;SDS011;6359;51.450;7.346;2023-06-05T10:27:21;11.18;;;3.75;;
12587;SDS011;6359;51.450;7.346;2023-06-05T10:33:00;10.88;;;3.67;;
12587;SDS011;6359;51.450;7.346;2023-06-05T10:35:48;6.78;;;3.00;;
12587;SDS011;6359;51.450;7.346;2023-06-05T10:38:26;6.15;;;3.35;;
12587;SDS011;6359;51.450;7.346;2023-06-05T10:40:55;10.48;;;2.83;;
12587;SDS011;6359;51.450;7.346;2023-06-05T10:43:25;8.02;;;2.88;;
12587;SDS011;6359;51.450;7.346;2023-06-05T10:45:53;6.68;;;3.08;;
12587;SDS011;6359;51.450;7.346;2023-06-05T10:48:21;5.07;;;3.30;;
12587;SDS011;6359;51.450;7.346;2023-06-05T10:51:33;9.35;;;3.50;;
12587;SDS011;6359;51.450;7.346;2023-06-05T10:54:02;3.25;;;2.63;;
12587;SDS011;6359;51.450;7.346;2023-06-05T10:59:26;7.55;;;3.05;;
12587;SDS011;6359;51.450;7.346;2023-06-05T11:05:06;6.78;;;2.45;;
12587;SDS011;6359;51.450;7.346;2023-06-05T11:07:35;3.20;;;2.45;;
12587;SDS011;6359;51.450;7.346;2023-06-05T11:10:04;4.07;;;2.70;;
12587;SDS011;6359;51.450;7.346;2023-06-05T11:12:57;5.28;;;2.53;;
12587;SDS011;6359;51.450;7.346;2023-06-05T11:15:35;4.25;;;2.42;;
12587;SDS011;6359;51.450;7.346;2023-06-05T11:20:54;8.23;;;3.00;;
12587;SDS011;6359;51.450;7.346;2023-06-05T11:23:21;5.22;;;2.60;;
12587;SDS011;6359;51.450;7.346;2023-06-05T11:25:52;5.32;;;2.63;;
12587;SDS011;6359;51.450;7.346;2023-06-05T11:28:38;4.85;;;2.70;;
12587;SDS011;6359;51.450;7.346;2023-06-05T11:31:06;4.68;;;2.72;;
12587;SDS011;6359;51.450;7.346;2023-06-05T11:33:33;7.57;;;2.53;;
12587;SDS011;6359;51.450;7.346;2023-06-05T11:36:01;4.28;;;2.70;;
12587;SDS011;6359;51.450;7.346;2023-06-05T11:38:30;5.85;;;2.35;;
12587;SDS011;6359;51.450;7.346;2023-06-05T11:40:57;6.88;;;2.42;;
12587;SDS011;6359;51.450;7.346;2023-06-05T11:43:24;4.60;;;2.22;;
12587;SDS011;6359;51.450;7.346;2023-06-05T11:45:53;3.17;;;1.90;;
12587;SDS011;6359;51.450;7.346;2023-06-05T11:48:21;4.38;;;2.08;;
12587;SDS011;6359;51.450;7.346;2023-06-05T11:50:52;7.07;;;2.15;;
12587;SDS011;6359;51.450;7.346;2023-06-05T11:53:20;3.20;;;1.98;;
12587;SDS011;6359;51.450;7.346;2023-06-05T11:55:47;5.28;;;2.20;;
12587;SDS011;6359;51.450;7.346;2023-06-05T11:58:31;6.78;;;3.38;;
12587;SDS011;6359;51.450;7.346;2023-06-05T12:01:07;4.90;;;2.28;;
12587;SDS011;6359;51.450;7.346;2023-06-05T12:03:39;4.13;;;2.13;;
12587;SDS011;6359;51.450;7.346;2023-06-05T12:06:07;4.45;;;2.55;;
12587;SDS011;6359;51.450;7.346;2023-06-05T12:08:34;2.83;;;2.53;;
12587;SDS011;6359;51.450;7.346;2023-06-05T12:11:02;4.13;;;2.40;;
12587;SDS011;6359;51.450;7.346;2023-06-05T12:13:45;5.00;;;2.70;;
12587;SDS011;6359;51.450;7.346;2023-06-05T12:16:16;2.92;;;2.28;;
12587;SDS011;6359;51.450;7.346;2023-06-05T12:18:43;3.95;;;1.95;;
12587;SDS011;6359;51.450;7.346;2023-06-05T12:21:21;5.38;;;2.42;;
12587;SDS011;6359;51.450;7.346;2023-06-05T12:23:50;5.88;;;2.20;;
12587;SDS011;6359;51.450;7.346;2023-06-05T12:26:17;4.13;;;2.28;;
12587;SDS011;6359;51.450;7.346;2023-06-05T12:28:44;3.33;;;2.05;;
12587;SDS011;6359;51.450;7.346;2023-06-05T12:34:01;3.95;;;2.38;;
12587;SDS011;6359;51.450;7.346;2023-06-05T12:36:29;4.22;;;2.50;;
12587;SDS011;6359;51.450;7.346;2023-06-05T12:39:01;4.30;;;2.55;;
12587;SDS011;6359;51.450;7.346;2023-06-05T12:41:31;4.25;;;2.28;;
12587;SDS011;6359;51.450;7.346;2023-06-05T12:43:58;3.67;;;2.78;;
12587;SDS011;6359;51.450;7.346;2023-06-05T12:46:26;2.47;;;2.13;;
12587;SDS011;6359;51.450;7.346;2023-06-05T12:48:55;3.28;;;2.10;;
12587;SDS011;6359;51.450;7.346;2023-06-05T12:51:23;9.52;;;2.50;;
12587;SDS011;6359;51.450;7.346;2023-06-05T12:53:51;3.50;;;2.17;;
12587;SDS011;6359;51.450;7.346;2023-06-05T12:56:18;6.97;;;2.25;;
12587;SDS011;6359;51.450;7.346;2023-06-05T12:58:48;6.75;;;2.38;;
12587;SDS011;6359;51.450;7.346;2023-06-05T13:01:15;5.95;;;2.20;;
12587;SDS011;6359;51.450;7.346;2023-06-05T13:03:42;4.43;;;2.33;;
12587;SDS011;6359;51.450;7.346;2023-06-05T13:06:11;4.93;;;2.28;;
12587;SDS011;6359;51.450;7.346;2023-06-05T13:08:37;4.50;;;2.25;;
12587;SDS011;6359;51.450;7.346;2023-06-05T13:11:04;2.28;;;2.00;;
12587;SDS011;6359;51.450;7.346;2023-06-05T13:13:31;6.00;;;2.13;;
12587;SDS011;6359;51.450;7.346;2023-06-05T13:15:59;6.32;;;2.22;;
12587;SDS011;6359;51.450;7.346;2023-06-05T13:18:27;3.70;;;2.00;;
12587;SDS011;6359;51.450;7.346;2023-06-05T13:20:53;5.93;;;2.03;;
12587;SDS011;6359;51.450;7.346;2023-06-05T13:23:22;6.15;;;2.10;;
12587;SDS011;6359;51.450;7.346;2023-06-05T13:25:49;3.45;;;2.15;;
12587;SDS011;6359;51.450;7.346;2023-06-05T13:28:16;5.13;;;2.38;;
12587;SDS011;6359;51.450;7.346;2023-06-05T13:30:43;4.60;;;2.10;;
12587;SDS011;6359;51.450;7.346;2023-06-05T13:33:12;6.93;;;2.20;;
12587;SDS011;6359;51.450;7.346;2023-06-05T13:35:38;4.22;;;1.77;;
12587;SDS011;6359;51.450;7.346;2023-06-05T13:38:05;3.55;;;1.90;;
12587;SDS011;6359;51.450;7.346;2023-06-05T13:40:34;3.50;;;2.00;;
12587;SDS011;6359;51.450;7.346;2023-06-05T13:43:01;4.72;;;2.00;;
12587;SDS011;6359;51.450;7.346;2023-06-05T13:45:27;4.78;;;2.00;;
12587;SDS011;6359;51.450;7.346;2023-06-05T13:47:54;4.60;;;1.95;;
12587;SDS011;6359;51.450;7.346;2023-06-05T13:50:21;2.58;;;1.83;;
12587;SDS011;6359;51.450;7.346;2023-06-05T13:52:48;3.45;;;2.20;;
12587;SDS011;6359;51.450;7.346;2023-06-05T13:55:15;11.25;;;2.08;;
12587;SDS011;6359;51.450;7.346;2023-06-05T13:57:44;7.15;;;2.20;;
12587;SDS011;6359;51.450;7.346;2023-06-05T14:00:11;8.95;;;1.90;;
12587;SDS011;6359;51.450;7.346;2023-06-05T14:02:40;6.10;;;1.92;;
12587;SDS011;6359;51.450;7.346;2023-06-05T14:05:07;2.78;;;1.80;;
12587;SDS011;6359;51.450;7.346;2023-06-05T14:07:35;2.17;;;1.90;;
12587;SDS011;6359;51.450;7.346;2023-06-05T14:10:03;1.85;;;1.67;;
12587;SDS011;6359;51.450;7.346;2023-06-05T14:12:30;2.47;;;1.90;;
12587;SDS011;6359;51.450;7.346;2023-06-05T14:14:58;3.47;;;2.30;;
12587;SDS011;6359;51.450;7.346;2023-06-05T14:17:25;2.97;;;1.90;;
12587;SDS011;6359;51.450;7.346;2023-06-05T14:19:52;6.30;;;1.83;;
12587;SDS011;6359;51.450;7.346;2023-06-05T14:22:19;5.78;;;2.08;;
12587;SDS011;6359;51.450;7.346;2023-06-05T14:24:46;2.80;;;1.70;;
12587;SDS011;6359;51.450;7.346;2023-06-05T14:27:13;3.97;;;1.80;;
12587;SDS011;6359;51.450;7.346;2023-06-05T14:29:41;4.88;;;2.47;;
12587;SDS011;6359;51.450;7.346;2023-06-05T14:32:09;14.95;;;5.15;;
12587;SDS011;6359;51.450;7.346;2023-06-05T14:34:36;2.63;;;1.80;;
12587;SDS011;6359;51.450;7.346;2023-06-05T14:37:03;2.50;;;1.75;;
12587;SDS011;6359;51.450;7.346;2023-06-05T14:39:30;10.32;;;3.13;;
12587;SDS011;6359;51.450;7.346;2023-06-05T14:41:57;4.72;;;2.80;;
12587;SDS011;6359;51.450;7.346;2023-06-05T14:44:24;1.55;;;1.45;;
12587;SDS011;6359;51.450;7.346;2023-06-05T14:46:52;1.88;;;1.52;;
12587;SDS011;6359;51.450;7.346;2023-06-05T14:49:21;3.58;;;2.00;;
12587;SDS011;6359;51.450;7.346;2023-06-05T14:51:49;1.95;;;1.67;;
12587;SDS011;6359;51.450;7.346;2023-06-05T14:54:16;5.90;;;1.70;;
12587;SDS011;6359;51.450;7.346;2023-06-05T14:56:43;3.97;;;2.08;;
12587;SDS011;6359;51.450;7.346;2023-06-05T14:59:10;9.20;;;3.33;;
12587;SDS011;6359;51.450;7.346;2023-06-05T15:01:38;2.88;;;1.88;;
12587;SDS011;6359;51.450;7.346;2023-06-05T15:04:05;2.65;;;1.98;;
12587;SDS011;6359;51.450;7.346;2023-06-05T15:06:33;8.57;;;1.80;;
12587;SDS011;6359;51.450;7.346;2023-06-05T15:09:00;3.13;;;1.95;;
12587;SDS011;6359;51.450;7.346;2023-06-05T15:11:28;2.80;;;2.17;;
12587;SDS011;6359;51.450;7.346;2023-06-05T15:13:55;2.83;;;1.70;;
12587;SDS011;6359;51.450;7.346;2023-06-05T15:16:22;5.65;;;2.00;;
12587;SDS011;6359;51.450;7.346;2023-06-05T15:18:49;2.72;;;1.90;;
12587;SDS011;6359;51.450;7.346;2023-06-05T15:21:16;3.45;;;1.92;;
12587;SDS011;6359;51.450;7.346;2023-06-05T15:23:45;7.70;;;2.03;;